createdAt,value
2023-04-18T00:01:29.466Z,27.67
2023-04-18T00:03:31.061Z,30.33
2023-04-18T00:05:32.730Z,27.30
2023-04-18T00:07:34.447Z,31.40
2023-04-18T00:09:35.931Z,25.73
2023-04-18T00:11:37.469Z,26.63
2023-04-18T00:13:39.149Z,27.35
2023-04-18T00:15:40.556Z,26.17
2023-04-18T00:17:42.016Z,30.00
2023-04-18T00:19:43.629Z,26.60
2023-04-18T00:21:45.270Z,29.85
2023-04-18T00:23:46.820Z,27.70
2023-04-18T00:25:48.785Z,28.02
2023-04-18T00:27:50.168Z,27.33
2023-04-18T00:29:51.687Z,37.05
2023-04-18T00:31:53.450Z,28.77
2023-04-18T00:33:54.855Z,32.25
2023-04-18T00:35:56.256Z,32.28
2023-04-18T00:37:58.072Z,32.65
2023-04-18T00:39:59.486Z,29.45
2023-04-18T00:42:01.922Z,32.58
2023-04-18T00:44:03.389Z,29.00
2023-04-18T00:46:04.918Z,28.58
2023-04-18T00:48:06.785Z,28.77
2023-04-18T00:50:09.668Z,30.20
2023-04-18T00:52:12.294Z,29.08
2023-04-18T00:54:14.463Z,32.75
2023-04-18T00:56:16.557Z,28.17
2023-04-18T00:58:18.014Z,27.85
2023-04-18T01:00:19.490Z,32.75
2023-04-18T01:02:21.135Z,27.65
2023-04-18T01:04:22.805Z,30.00
2023-04-18T01:06:24.539Z,27.60
2023-04-18T01:08:26.109Z,66.72
2023-04-18T01:10:28.671Z,31.40
2023-04-18T01:12:30.438Z,27.77
2023-04-18T01:14:31.946Z,26.88
2023-04-18T01:16:34.156Z,24.38
2023-04-18T01:18:35.619Z,31.25
2023-04-18T01:20:44.185Z,27.08
2023-04-18T01:22:45.594Z,27.98
2023-04-18T01:24:47.052Z,26.45
2023-04-18T01:26:48.544Z,26.83
2023-04-18T01:28:49.965Z,32.53
2023-04-18T01:30:51.495Z,23.73
2023-04-18T01:32:53.146Z,29.65
2023-04-18T01:34:54.599Z,26.17
2023-04-18T01:36:56.018Z,25.35
2023-04-18T01:38:58.127Z,29.38
2023-04-18T01:40:59.549Z,25.52
2023-04-18T01:43:01.019Z,26.20
2023-04-18T01:45:02.581Z,24.85
2023-04-18T01:47:04.007Z,28.98
2023-04-18T01:49:06.080Z,26.20
2023-04-18T01:51:07.574Z,29.17
2023-04-18T01:53:08.969Z,23.13
2023-04-18T01:55:10.619Z,26.25
2023-04-18T01:57:12.022Z,27.25
2023-04-18T01:59:13.423Z,24.90
2023-04-18T02:01:15.127Z,26.98
2023-04-18T02:03:16.769Z,26.83
2023-04-18T02:05:18.323Z,29.17
2023-04-18T02:07:19.915Z,25.13
2023-04-18T02:09:21.391Z,24.20
2023-04-18T02:11:22.780Z,30.13
2023-04-18T02:13:24.491Z,25.15
2023-04-18T02:15:25.964Z,27.13
2023-04-18T02:17:28.526Z,25.92
2023-04-18T02:19:30.436Z,24.20
2023-04-18T02:21:31.966Z,26.15
2023-04-18T02:23:33.395Z,24.27
2023-04-18T02:25:34.845Z,28.13
2023-04-18T02:27:36.421Z,25.05
2023-04-18T02:29:37.837Z,28.38
2023-04-18T02:31:41.018Z,24.08
2023-04-18T02:33:43.159Z,23.05
2023-04-18T02:35:44.558Z,24.90
2023-04-18T02:37:46.090Z,23.73
2023-04-18T02:39:47.496Z,23.83
2023-04-18T02:41:48.907Z,24.80
2023-04-18T02:43:50.482Z,21.30
2023-04-18T02:45:52.090Z,24.95
2023-04-18T02:47:56.202Z,21.67
2023-04-18T02:49:58.035Z,26.85
2023-04-18T02:51:59.615Z,22.50
2023-04-18T02:54:01.024Z,24.95
2023-04-18T02:56:02.653Z,25.17
2023-04-18T02:58:04.175Z,23.63
2023-04-18T03:00:06.329Z,23.85
2023-04-18T03:02:08.096Z,26.02
2023-04-18T03:04:09.704Z,23.88
2023-04-18T03:06:11.153Z,24.75
2023-04-18T03:08:12.657Z,24.95
2023-04-18T03:10:14.157Z,23.88
2023-04-18T03:12:15.554Z,24.30
2023-04-18T03:14:17.035Z,27.42
2023-04-18T03:16:18.621Z,26.90
2023-04-18T03:18:20.110Z,25.98
2023-04-18T03:20:21.601Z,24.70
2023-04-18T03:22:23.001Z,26.08
2023-04-18T03:24:24.381Z,26.58
2023-04-18T03:26:26.314Z,26.20
2023-04-18T03:28:27.817Z,25.38
2023-04-18T03:30:29.278Z,26.98
2023-04-18T03:32:30.797Z,26.55
2023-04-18T03:34:32.289Z,36.65
2023-04-18T03:36:33.798Z,26.17
2023-04-18T03:38:35.244Z,27.23
2023-04-18T03:40:36.727Z,24.88
2023-04-18T03:42:38.141Z,26.35
2023-04-18T03:44:39.638Z,30.00
2023-04-18T03:46:41.363Z,25.88
2023-04-18T03:48:42.879Z,26.42
2023-04-18T03:50:44.373Z,30.45
2023-04-18T03:52:45.862Z,28.38
2023-04-18T03:54:47.289Z,26.23
2023-04-18T03:56:48.780Z,26.25
2023-04-18T03:58:50.177Z,27.05
2023-04-18T04:00:51.657Z,27.98
2023-04-18T04:02:53.207Z,25.58
2023-04-18T04:04:54.796Z,27.38
2023-04-18T04:06:56.722Z,26.17
2023-04-18T04:08:58.213Z,26.63
2023-04-18T04:10:59.719Z,26.65
2023-04-18T04:13:01.140Z,29.15
2023-04-18T04:15:02.732Z,25.67
2023-04-18T04:17:04.446Z,25.05
2023-04-18T04:19:05.855Z,26.90
2023-04-18T04:21:07.265Z,29.52
2023-04-18T04:23:08.676Z,30.27
2023-04-18T04:25:10.114Z,29.38
2023-04-18T04:27:11.518Z,31.08
2023-04-18T04:29:13.211Z,30.83
2023-04-18T04:31:14.782Z,25.38
2023-04-18T04:33:20.527Z,26.13
2023-04-18T04:35:22.086Z,25.95
2023-04-18T04:37:23.502Z,30.40
2023-04-18T04:39:25.065Z,28.42
2023-04-18T04:41:26.533Z,27.40
2023-04-18T04:43:27.950Z,29.80
2023-04-18T04:45:29.534Z,27.05
2023-04-18T04:47:31.191Z,26.65
2023-04-18T04:49:32.677Z,28.63
2023-04-18T04:51:34.164Z,26.55
2023-04-18T04:53:35.797Z,25.48
2023-04-18T04:55:37.289Z,27.50
2023-04-18T04:57:38.888Z,28.45
2023-04-18T04:59:40.346Z,30.25
2023-04-18T05:01:41.781Z,25.90
2023-04-18T05:03:43.476Z,30.63
2023-04-18T05:05:46.155Z,29.13
2023-04-18T05:07:47.587Z,34.90
2023-04-18T05:09:49.087Z,29.98
2023-04-18T05:11:50.492Z,27.10
2023-04-18T05:13:51.916Z,27.55
2023-04-18T05:15:53.517Z,30.48
2023-04-18T05:17:55.052Z,34.17
2023-04-18T05:19:56.533Z,28.73
2023-04-18T05:21:58.179Z,28.02
2023-04-18T05:23:59.840Z,29.27
2023-04-18T05:26:01.261Z,26.30
2023-04-18T05:28:02.746Z,26.55
2023-04-18T05:30:04.574Z,25.27
2023-04-18T05:32:06.243Z,29.88
2023-04-18T05:34:07.855Z,27.42
2023-04-18T05:36:09.283Z,30.25
2023-04-18T05:38:10.720Z,29.50
2023-04-18T05:40:12.896Z,30.77
2023-04-18T05:42:14.437Z,28.52
2023-04-18T05:44:15.858Z,27.38
2023-04-18T05:46:17.471Z,30.13
2023-04-18T05:48:19.098Z,32.45
2023-04-18T05:50:20.544Z,25.40
2023-04-18T05:52:22.161Z,27.42
2023-04-18T05:54:24.029Z,25.88
2023-04-18T05:56:25.506Z,29.58
2023-04-18T05:58:27.106Z,31.17
2023-04-18T06:00:29.082Z,28.98
2023-04-18T06:02:30.552Z,27.75
2023-04-18T06:04:32.328Z,25.65
2023-04-18T06:06:35.156Z,24.85
2023-04-18T06:08:40.689Z,25.48
2023-04-18T06:10:42.327Z,28.40
2023-04-18T06:12:43.927Z,34.08
2023-04-18T06:14:45.374Z,43.10
2023-04-18T06:16:47.053Z,35.00
2023-04-18T06:18:48.573Z,41.83
2023-04-18T06:20:50.017Z,37.63
2023-04-18T06:22:51.511Z,28.70
2023-04-18T06:24:53.112Z,32.30
2023-04-18T06:26:54.775Z,45.83
2023-04-18T06:28:56.380Z,28.67
2023-04-18T06:30:58.089Z,27.55
2023-04-18T06:32:59.859Z,22.38
2023-04-18T06:35:01.374Z,26.27
2023-04-18T06:37:02.858Z,28.73
2023-04-18T06:39:04.288Z,26.02
2023-04-18T06:41:05.899Z,26.80
2023-04-18T06:43:07.626Z,30.85
2023-04-18T06:45:09.874Z,30.95
2023-04-18T06:47:11.633Z,24.13
2023-04-18T06:49:13.185Z,23.45
2023-04-18T06:51:14.579Z,25.50
2023-04-18T06:53:16.124Z,25.65
2023-04-18T06:55:17.799Z,24.13
2023-04-18T06:57:19.272Z,23.25
2023-04-18T06:59:20.935Z,22.70
2023-04-18T07:01:22.570Z,23.05
2023-04-18T07:03:24.231Z,25.77
2023-04-18T07:05:25.836Z,25.40
2023-04-18T07:07:27.480Z,22.52
2023-04-18T07:09:28.929Z,23.40
2023-04-18T07:11:30.431Z,23.23
2023-04-18T07:13:32.057Z,24.27
2023-04-18T07:15:36.505Z,24.35
2023-04-18T07:17:38.033Z,29.48
2023-04-18T07:19:40.933Z,23.35
2023-04-18T07:21:42.428Z,24.45
2023-04-18T07:23:44.137Z,30.55
2023-04-18T07:25:45.652Z,25.00
2023-04-18T07:27:47.049Z,29.60
2023-04-18T07:29:48.561Z,25.38
2023-04-18T07:31:51.122Z,23.83
2023-04-18T07:33:52.544Z,22.52
2023-04-18T07:35:54.047Z,23.10
2023-04-18T07:37:55.711Z,24.00
2023-04-18T07:39:57.151Z,25.70
2023-04-18T07:41:58.605Z,23.38
2023-04-18T07:44:01.381Z,23.02
2023-04-18T07:46:02.822Z,24.83
2023-04-18T07:48:05.373Z,27.45
2023-04-18T07:50:08.103Z,22.55
2023-04-18T07:52:09.552Z,29.35
2023-04-18T07:54:11.266Z,27.35
2023-04-18T07:56:13.160Z,26.80
2023-04-18T07:58:14.567Z,25.98
2023-04-18T08:00:17.577Z,24.17
2023-04-18T08:02:19.808Z,29.42
2023-04-18T08:04:21.529Z,25.27
2023-04-18T08:06:23.052Z,26.40
2023-04-18T08:08:24.473Z,23.13
2023-04-18T08:10:25.863Z,24.92
2023-04-18T08:12:27.466Z,23.88
2023-04-18T08:14:29.226Z,23.98
2023-04-18T08:16:30.717Z,24.02
2023-04-18T08:18:32.268Z,25.58
2023-04-18T08:20:35.524Z,25.20
2023-04-18T08:22:46.825Z,22.77
2023-04-18T08:25:04.888Z,25.60
2023-04-18T08:27:07.637Z,27.73
2023-04-18T08:29:09.090Z,26.50
2023-04-18T08:31:14.881Z,21.02
2023-04-18T08:33:16.511Z,21.38
2023-04-18T08:35:17.978Z,21.50
2023-04-18T08:37:20.029Z,23.38
2023-04-18T08:39:22.695Z,25.33
2023-04-18T08:41:26.503Z,24.25
2023-04-18T08:43:28.018Z,21.90
2023-04-18T08:45:29.588Z,23.30
2023-04-18T08:47:31.387Z,21.30
2023-04-18T08:49:32.978Z,22.13
2023-04-18T08:51:34.828Z,19.85
2023-04-18T08:53:36.218Z,20.70
2023-04-18T08:55:37.864Z,20.85
2023-04-18T08:57:39.359Z,21.20
2023-04-18T08:59:40.850Z,21.60
2023-04-18T09:01:53.245Z,21.75
2023-04-18T09:03:54.748Z,23.65
2023-04-18T09:06:16.690Z,22.90
2023-04-18T09:08:24.321Z,24.80
2023-04-18T09:10:31.090Z,20.92
2023-04-18T09:12:33.234Z,22.67
2023-04-18T09:14:35.450Z,22.08
2023-04-18T09:16:46.361Z,22.73
2023-04-18T09:19:10.894Z,21.52
2023-04-18T09:21:19.112Z,20.20
2023-04-18T09:23:24.265Z,20.88
2023-04-18T09:25:27.251Z,22.52
2023-04-18T09:27:34.603Z,20.65
2023-04-18T09:29:48.187Z,19.55
2023-04-18T09:32:00.458Z,19.92
2023-04-18T09:34:02.069Z,20.90
2023-04-18T09:36:18.230Z,18.95
2023-04-18T09:38:19.946Z,19.80
2023-04-18T09:40:21.783Z,19.77
2023-04-18T09:42:23.189Z,20.42
2023-04-18T09:44:24.632Z,20.58
2023-04-18T09:46:27.325Z,23.08
2023-04-18T09:48:28.894Z,21.13
2023-04-18T09:50:32.126Z,23.05
2023-04-18T09:52:35.414Z,19.02
2023-04-18T09:54:38.893Z,20.70
2023-04-18T09:56:44.173Z,22.08
2023-04-18T09:58:47.334Z,22.20
2023-04-18T10:00:53.764Z,22.33
2023-04-18T10:03:08.662Z,20.23
2023-04-18T10:05:10.852Z,22.25
2023-04-18T10:07:13.439Z,21.70
2023-04-18T10:09:15.393Z,18.15
2023-04-18T10:11:19.226Z,20.27
2023-04-18T10:13:22.664Z,21.13
2023-04-18T10:15:26.579Z,20.45
2023-04-18T10:17:29.676Z,18.73
2023-04-18T10:19:31.824Z,20.40
2023-04-18T10:21:34.220Z,21.17
2023-04-18T10:23:37.954Z,15.23
2023-04-18T10:25:39.322Z,23.15
2023-04-18T10:27:49.549Z,20.45
2023-04-18T10:29:53.985Z,24.30
2023-04-18T10:31:55.492Z,21.70
2023-04-18T10:34:05.157Z,25.52
2023-04-18T10:36:10.628Z,19.40
2023-04-18T10:38:17.902Z,16.27
2023-04-18T10:40:33.444Z,17.52
2023-04-18T10:42:46.838Z,16.88
2023-04-18T10:45:20.745Z,13.55
2023-04-18T10:47:22.274Z,24.27
2023-04-18T10:49:30.265Z,15.73
2023-04-18T10:51:33.667Z,18.73
2023-04-18T10:53:35.060Z,16.27
2023-04-18T10:55:36.651Z,19.40
2023-04-18T10:57:46.238Z,14.52
2023-04-18T10:59:52.166Z,15.18
2023-04-18T11:01:56.681Z,18.05
2023-04-18T11:03:58.864Z,16.10
2023-04-18T11:06:03.808Z,12.45
2023-04-18T11:08:05.806Z,13.18
2023-04-18T11:10:08.968Z,25.50
2023-04-18T11:12:11.319Z,13.60
2023-04-18T11:14:13.211Z,12.90
2023-04-18T11:16:26.591Z,15.20
2023-04-18T11:18:39.952Z,13.85
2023-04-18T11:20:49.423Z,13.18
2023-04-18T11:22:52.110Z,15.20
2023-04-18T11:25:00.825Z,13.95
2023-04-18T11:27:04.111Z,16.05
2023-04-18T11:29:06.335Z,16.33
2023-04-18T11:31:07.962Z,15.55
2023-04-18T11:33:10.717Z,15.18
2023-04-18T11:35:14.158Z,18.13
2023-04-18T11:37:15.639Z,12.73
2023-04-18T11:39:17.664Z,13.63
2023-04-18T11:41:19.244Z,12.90
2023-04-18T11:43:25.024Z,14.00
2023-04-18T11:45:26.430Z,14.48
2023-04-18T11:47:29.834Z,12.80
2023-04-18T11:49:32.544Z,18.83
2023-04-18T11:51:35.236Z,16.57
2023-04-18T11:53:38.615Z,16.50
2023-04-18T11:55:40.188Z,14.20
2023-04-18T11:57:41.634Z,13.35
2023-04-18T11:59:48.815Z,11.95
2023-04-18T12:02:14.843Z,15.45
2023-04-18T12:04:17.567Z,12.88
2023-04-18T12:06:19.739Z,12.00
2023-04-18T12:08:21.490Z,13.13
2023-04-18T12:10:28.789Z,14.20
2023-04-18T12:12:30.699Z,15.43
2023-04-18T12:14:35.264Z,13.45
2023-04-18T12:16:36.696Z,11.02
2023-04-18T12:18:38.217Z,13.20
2023-04-18T12:20:42.053Z,12.82
2023-04-18T12:22:48.313Z,12.40
2023-04-18T12:25:14.288Z,8.63
2023-04-18T12:27:15.769Z,13.75
2023-04-18T12:29:17.203Z,13.70
2023-04-18T12:31:18.620Z,12.77
2023-04-18T12:33:20.101Z,11.85
2023-04-18T12:35:22.723Z,9.52
2023-04-18T12:37:24.127Z,11.00
2023-04-18T12:39:25.735Z,16.58
2023-04-18T12:41:27.123Z,11.10
2023-04-18T12:43:28.771Z,14.88
2023-04-18T12:45:30.305Z,17.65
2023-04-18T12:47:31.952Z,13.80
2023-04-18T12:49:33.511Z,13.02
2023-04-18T12:51:34.971Z,12.05
2023-04-18T12:53:36.391Z,14.57
2023-04-18T12:55:37.823Z,10.70
2023-04-18T12:57:39.584Z,15.25
2023-04-18T12:59:40.972Z,9.07
2023-04-18T13:01:42.361Z,9.82
2023-04-18T13:03:45.504Z,11.70
2023-04-18T13:05:52.261Z,11.13
2023-04-18T13:08:01.601Z,14.05
2023-04-18T13:10:12.500Z,12.95
2023-04-18T13:12:14.390Z,9.00
2023-04-18T13:14:15.966Z,8.68
2023-04-18T13:16:17.481Z,9.25
2023-04-18T13:18:18.896Z,13.75
2023-04-18T13:20:20.410Z,10.40
2023-04-18T13:22:22.041Z,13.38
2023-04-18T13:24:23.493Z,10.65
2023-04-18T13:26:24.981Z,13.25
2023-04-18T13:28:26.376Z,11.80
2023-04-18T13:30:27.985Z,11.27
2023-04-18T13:32:29.392Z,8.45
2023-04-18T13:34:30.839Z,15.35
2023-04-18T13:36:32.294Z,9.80
2023-04-18T13:38:34.172Z,10.13
2023-04-18T13:40:35.653Z,9.20
2023-04-18T13:44:57.568Z,8.45
2023-04-18T13:47:01.043Z,8.23
2023-04-18T13:49:02.468Z,8.85
2023-04-18T13:51:04.251Z,55.72
2023-04-18T13:53:05.788Z,15.20
2023-04-18T13:55:07.777Z,12.10
2023-04-18T13:57:09.447Z,9.40
2023-04-18T13:59:11.027Z,9.95
2023-04-18T14:01:12.414Z,8.88
2023-04-18T14:03:14.161Z,16.27
2023-04-18T14:05:15.716Z,15.00
2023-04-18T14:07:17.120Z,13.85
2023-04-18T14:09:18.774Z,8.25
2023-04-18T14:11:20.788Z,9.63
2023-04-18T14:13:22.239Z,11.40
2023-04-18T14:18:19.943Z,34.45
2023-04-18T14:20:21.367Z,27.38
2023-04-18T14:22:22.767Z,11.40
2023-04-18T14:24:24.362Z,9.90
2023-04-18T14:26:25.843Z,10.27
2023-04-18T14:28:27.309Z,11.93
2023-04-18T14:30:28.846Z,8.32
2023-04-18T14:32:30.309Z,10.70
2023-04-18T14:34:33.978Z,13.90
2023-04-18T14:36:36.761Z,31.85
2023-04-18T14:38:38.177Z,11.25
2023-04-18T14:40:39.629Z,10.32
2023-04-18T14:42:41.182Z,20.33
2023-04-18T14:44:42.590Z,23.13
2023-04-18T14:46:44.069Z,16.23
2023-04-18T14:48:46.160Z,18.40
2023-04-18T14:50:56.277Z,31.95
2023-04-18T14:52:57.789Z,36.35
2023-04-18T14:54:59.364Z,47.25
2023-04-18T14:57:01.065Z,7.82
2023-04-18T14:59:02.713Z,18.60
2023-04-18T15:01:04.765Z,13.15
2023-04-18T15:03:08.266Z,30.23
2023-04-18T15:05:12.321Z,10.27
2023-04-18T15:07:13.976Z,14.25
2023-04-18T15:09:15.452Z,11.18
2023-04-18T15:11:16.868Z,16.13
2023-04-18T15:13:18.404Z,13.90
2023-04-18T15:15:19.865Z,44.30
2023-04-18T15:17:21.363Z,17.27
2023-04-18T15:19:23.320Z,31.40
2023-04-18T15:21:24.730Z,19.90
2023-04-18T15:23:26.271Z,13.95
2023-04-18T15:25:27.841Z,35.25
2023-04-18T15:27:29.300Z,28.15
2023-04-18T15:29:30.729Z,19.17
2023-04-18T15:31:32.686Z,13.73
2023-04-18T15:33:34.121Z,18.52
2023-04-18T15:35:35.542Z,19.67
2023-04-18T15:37:37.347Z,25.08
2023-04-18T15:39:38.755Z,22.30
2023-04-18T15:41:40.246Z,23.17
2023-04-18T15:43:41.865Z,17.52
2023-04-18T15:45:43.323Z,13.35
2023-04-18T15:47:44.812Z,22.52
2023-04-18T15:49:46.488Z,14.98
2023-04-18T15:51:47.930Z,22.58
2023-04-18T15:53:49.336Z,15.13
2023-04-18T15:55:50.909Z,11.70
2023-04-18T15:57:52.287Z,29.50
2023-04-18T15:59:53.707Z,14.80
2023-04-18T16:01:55.489Z,13.90
2023-04-18T16:03:57.073Z,16.30
2023-04-18T16:05:58.577Z,16.35
2023-04-18T16:08:00.175Z,20.83
2023-04-18T16:10:01.663Z,17.95
2023-04-18T16:12:03.375Z,13.82
2023-04-18T16:14:05.052Z,20.77
2023-04-18T16:16:06.832Z,18.98
2023-04-18T16:18:08.517Z,23.08
2023-04-18T16:20:10.240Z,20.33
2023-04-18T16:22:11.822Z,18.67
2023-04-18T16:24:15.253Z,20.10
2023-04-18T16:28:18.312Z,17.35
2023-04-18T16:30:19.835Z,13.43
2023-04-18T16:32:21.651Z,12.43
2023-04-18T16:34:23.194Z,12.82
2023-04-18T16:36:24.692Z,13.07
2023-04-18T16:38:26.285Z,19.92
2023-04-18T16:40:27.682Z,14.13
2023-04-18T16:42:29.106Z,18.42
2023-04-18T16:44:30.778Z,16.27
2023-04-18T16:46:32.517Z,19.70
2023-04-18T16:48:34.102Z,26.90
2023-04-18T16:50:35.698Z,16.42
2023-04-18T16:52:37.082Z,20.75
2023-04-18T16:54:38.513Z,23.05
2023-04-18T16:56:40.116Z,24.10
2023-04-18T16:58:41.526Z,12.80
2023-04-18T17:00:42.969Z,19.23
2023-04-18T17:02:44.833Z,18.02
2023-04-18T17:04:46.342Z,12.30
2023-04-18T17:06:48.125Z,20.38
2023-04-18T17:08:50.658Z,18.73
2023-04-18T17:10:52.277Z,18.05
2023-04-18T17:12:53.773Z,12.20
2023-04-18T17:14:55.463Z,15.10
2023-04-18T17:16:56.858Z,20.17
2023-04-18T17:18:58.243Z,12.90
2023-04-18T17:20:59.828Z,17.85
2023-04-18T17:23:01.263Z,15.05
2023-04-18T17:25:03.041Z,13.60
2023-04-18T17:27:04.820Z,13.27
2023-04-18T17:29:06.280Z,26.35
2023-04-18T17:31:07.859Z,28.77
2023-04-18T17:33:10.328Z,19.45
2023-04-18T17:35:12.631Z,22.35
2023-04-18T17:37:14.050Z,23.45
2023-04-18T17:39:15.694Z,17.45
2023-04-18T17:41:18.864Z,39.90
2023-04-18T17:43:20.268Z,30.27
2023-04-18T17:45:21.845Z,101.43
2023-04-18T17:47:23.381Z,125.28
2023-04-18T17:49:24.840Z,120.85
2023-04-18T17:51:26.465Z,52.00
2023-04-18T17:53:29.157Z,82.13
2023-04-18T17:55:31.616Z,30.25
2023-04-18T17:57:33.426Z,42.58
2023-04-18T17:59:34.834Z,74.63
2023-04-18T18:01:36.277Z,35.05
2023-04-18T18:03:38.426Z,28.30
2023-04-18T18:05:40.988Z,38.95
2023-04-18T18:07:42.386Z,26.20
2023-04-18T18:09:44.418Z,47.30
2023-04-18T18:11:45.839Z,20.90
2023-04-18T18:13:47.388Z,57.40
2023-04-18T18:15:49.078Z,33.47
2023-04-18T18:17:51.403Z,27.10
2023-04-18T18:19:52.830Z,40.42
2023-04-18T18:21:54.854Z,32.67
2023-04-18T18:23:56.248Z,31.08
2023-04-18T18:25:57.715Z,26.92
2023-04-18T18:27:59.304Z,17.83
2023-04-18T18:30:00.711Z,31.08
2023-04-18T18:32:02.128Z,23.25
2023-04-18T18:34:04.126Z,32.10
2023-04-18T18:36:05.777Z,30.85
2023-04-18T18:38:07.206Z,53.55
2023-04-18T18:40:09.278Z,28.55
2023-04-18T18:42:10.702Z,40.80
2023-04-18T18:44:12.131Z,20.85
2023-04-18T18:46:14.860Z,21.13
2023-04-18T18:48:16.287Z,23.97
2023-04-18T18:50:17.839Z,20.45
2023-04-18T18:52:19.405Z,28.55
2023-04-18T18:54:20.809Z,30.25
2023-04-18T18:56:22.227Z,27.20
2023-04-18T18:58:23.922Z,24.85
2023-04-18T19:00:25.364Z,19.75
2023-04-18T19:02:26.862Z,19.05
2023-04-18T19:04:28.913Z,22.02
2023-04-18T19:06:30.379Z,26.67
2023-04-18T19:08:31.794Z,35.25
2023-04-18T19:10:33.584Z,42.90
2023-04-18T19:12:35.034Z,53.25
2023-04-18T19:14:36.438Z,32.42
2023-04-18T19:16:38.388Z,34.13
2023-04-18T19:18:39.856Z,34.28
2023-04-18T19:20:41.342Z,38.42
2023-04-18T19:22:42.875Z,34.25
2023-04-18T19:24:44.328Z,32.22
2023-04-18T19:26:45.734Z,36.72
2023-04-18T19:28:47.295Z,26.35
2023-04-18T19:30:49.496Z,28.00
2023-04-18T19:32:50.995Z,30.38
2023-04-18T19:34:52.639Z,41.10
2023-04-18T19:36:54.062Z,40.75
2023-04-18T19:38:55.452Z,31.27
2023-04-18T19:40:57.087Z,27.13
2023-04-18T19:42:58.473Z,28.20
2023-04-18T19:44:59.877Z,24.95
2023-04-18T19:47:01.477Z,21.85
2023-04-18T19:49:02.942Z,20.00
2023-04-18T19:51:04.347Z,17.73
2023-04-18T19:53:06.061Z,26.73
2023-04-18T19:55:07.911Z,16.52
2023-04-18T19:57:09.527Z,19.08
2023-04-18T19:59:11.188Z,19.45
2023-04-18T20:01:14.128Z,15.27
2023-04-18T20:03:15.718Z,21.60
2023-04-18T20:05:17.707Z,16.75
2023-04-18T20:07:19.667Z,19.98
2023-04-18T20:09:21.181Z,22.10
2023-04-18T20:11:22.942Z,17.08
2023-04-18T20:13:24.351Z,18.17
2023-04-18T20:15:25.847Z,24.45
2023-04-18T20:17:27.587Z,17.58
2023-04-18T20:19:28.998Z,17.27
2023-04-18T20:21:30.471Z,21.85
2023-04-18T20:23:31.952Z,22.10
2023-04-18T20:25:33.956Z,22.10
2023-04-18T20:27:35.565Z,20.98
2023-04-18T20:29:37.042Z,21.90
2023-04-18T20:31:38.479Z,18.95
2023-04-18T20:33:39.980Z,19.30
2023-04-18T20:35:41.648Z,17.38
2023-04-18T20:37:43.122Z,19.17
2023-04-18T20:39:44.528Z,18.88
2023-04-18T20:41:49.797Z,20.33
2023-04-18T20:43:51.220Z,18.83
2023-04-18T20:45:52.973Z,19.27
2023-04-18T20:47:54.711Z,21.55
2023-04-18T20:49:56.140Z,23.17
2023-04-18T20:51:57.533Z,24.48
2023-04-18T20:53:59.213Z,24.95
2023-04-18T20:56:02.752Z,24.88
2023-04-18T20:58:04.154Z,26.75
2023-04-18T21:00:06.909Z,29.27
2023-04-18T21:02:08.501Z,26.90
2023-04-18T21:04:10.162Z,25.63
2023-04-18T21:06:11.836Z,30.08
2023-04-18T21:08:14.263Z,26.75
2023-04-18T21:10:15.681Z,32.00
2023-04-18T21:12:17.294Z,31.30
2023-04-18T21:14:18.710Z,33.90
2023-04-18T21:16:20.154Z,35.25
2023-04-18T21:18:21.750Z,37.17
2023-04-18T21:20:23.244Z,39.70
2023-04-18T21:22:24.727Z,32.50
2023-04-18T21:24:26.276Z,37.63
2023-04-18T21:26:27.728Z,31.55
2023-04-18T21:28:29.124Z,27.88
2023-04-18T21:30:30.868Z,28.42
2023-04-18T21:32:32.332Z,25.95
2023-04-18T21:34:33.721Z,23.02
2023-04-18T21:36:35.608Z,20.73
2023-04-18T21:38:37.042Z,23.20
2023-04-18T21:40:38.447Z,22.50
2023-04-18T21:42:40.032Z,19.80
2023-04-18T21:44:41.437Z,18.20
2023-04-18T21:46:42.833Z,21.38
2023-04-18T21:48:45.908Z,19.63
2023-04-18T21:50:53.914Z,20.25
2023-04-18T21:52:55.310Z,20.88
2023-04-18T21:54:56.852Z,15.23
2023-04-18T21:56:58.246Z,17.02
2023-04-18T21:58:59.776Z,17.52
2023-04-18T22:01:02.289Z,15.18
2023-04-18T22:03:03.876Z,19.33
2023-04-18T22:05:05.830Z,18.58
2023-04-18T22:07:07.483Z,23.92
2023-04-18T22:09:08.935Z,27.63
2023-04-18T22:11:10.345Z,28.65
2023-04-18T22:13:12.171Z,23.35
2023-04-18T22:15:13.587Z,36.03
2023-04-18T22:17:15.087Z,35.85
2023-04-18T22:19:17.253Z,27.27
2023-04-18T22:21:18.690Z,19.50
2023-04-18T22:23:20.094Z,17.33
2023-04-18T22:25:21.907Z,19.92
2023-04-18T22:27:23.304Z,16.33
2023-04-18T22:29:24.729Z,18.52
2023-04-18T22:31:26.361Z,21.85
2023-04-18T22:33:28.101Z,24.20
2023-04-18T22:35:29.497Z,24.65
2023-04-18T22:37:31.224Z,22.05
2023-04-18T22:39:32.633Z,20.52
2023-04-18T22:41:34.039Z,33.78
2023-04-18T22:43:35.697Z,32.33
2023-04-18T22:45:37.103Z,31.77
2023-04-18T22:47:38.646Z,33.90
2023-04-18T22:49:40.222Z,45.30
2023-04-18T22:51:41.602Z,42.33
2023-04-18T22:53:42.993Z,36.10
2023-04-18T22:55:45.163Z,33.47
2023-04-18T22:57:46.579Z,32.13
2023-04-18T22:59:48.005Z,29.95
2023-04-18T23:01:49.716Z,29.45
2023-04-18T23:03:51.352Z,28.25
2023-04-18T23:05:52.895Z,29.02
2023-04-18T23:07:54.482Z,24.02
2023-04-18T23:09:55.943Z,20.48
2023-04-18T23:11:57.369Z,21.42
2023-04-18T23:13:59.417Z,20.85
2023-04-18T23:16:00.865Z,20.85
2023-04-18T23:18:02.393Z,23.55
2023-04-18T23:20:05.051Z,23.48
2023-04-18T23:22:06.521Z,22.23
2023-04-18T23:24:08.109Z,25.27
2023-04-18T23:26:13.688Z,21.83
2023-04-18T23:28:15.139Z,21.48
2023-04-18T23:30:16.599Z,20.65
2023-04-18T23:32:18.131Z,21.92
2023-04-18T23:34:19.540Z,19.52
2023-04-18T23:36:20.937Z,25.52
2023-04-18T23:38:22.665Z,24.15
2023-04-18T23:40:24.228Z,24.67
2023-04-18T23:42:25.708Z,21.95
2023-04-18T23:44:27.321Z,21.92
2023-04-18T23:46:28.793Z,21.48
2023-04-18T23:48:30.187Z,19.00
2023-04-18T23:50:31.691Z,20.80
2023-04-18T23:52:33.424Z,17.65
2023-04-18T23:54:34.806Z,19.23
2023-04-18T23:56:36.354Z,18.52
2023-04-18T23:58:37.807Z,21.38
